Time;durP1;ratioP1;P1;durP2;ratioP2;P2;SDS_P1;SDS_P2;PMS_P1;PMS_P2;Temp;Humidity;BMP_temperature;BMP_pressure;BME280_temperature;BME280_humidity;BME280_pressure;Samples;Min_cycle;Max_cycle;Signal;HPM_P1;HPM_P2
2021/05/19 00:01:34;;;;;;;4.40;2.03;;;10.10;91.30;;;;;;5047136;28;20032;-69
2021/05/19 00:04:00;;;;;;;3.90;1.20;;;10.00;91.30;;;;;;5046826;28;20120;-68
2021/05/19 00:06:26;;;;;;;;;;;10.00;91.50;;;;;;5046906;28;20124;-67
2021/05/19 00:08:51;;;;;;;2.38;1.10;;;9.90;91.90;;;;;;5046354;28;19916;-68
2021/05/19 00:11:17;;;;;;;;;;;9.70;91.70;;;;;;5046946;28;20033;-68
2021/05/19 00:13:43;;;;;;;3.20;0.80;;;9.70;91.90;;;;;;5047035;28;20292;-67
2021/05/19 00:16:08;;;;;;;;;;;9.60;92.10;;;;;;5045511;28;20032;-68
2021/05/19 00:18:35;;;;;;;7.95;1.48;;;9.50;92.40;;;;;;5046332;28;19954;-68
2021/05/19 00:21:01;;;;;;;2.60;0.68;;;9.50;92.70;;;;;;5046490;28;20025;-68
2021/05/19 00:23:27;;;;;;;1.52;0.80;;;9.50;92.60;;;;;;5046643;28;20041;-68
2021/05/19 00:25:52;;;;;;;;;;;9.50;92.60;;;;;;5046759;28;20051;-67
2021/05/19 00:28:19;;;;;;;3.72;0.98;;;9.50;92.70;;;;;;5047199;28;20347;-67
2021/05/19 00:30:47;;;;;;;3.58;0.73;;;9.60;92.60;;;;;;5046068;28;20054;-68
2021/05/19 00:33:13;;;;;;;2.30;0.95;;;9.60;92.60;;;;;;5046639;28;20481;-68
2021/05/19 00:35:39;;;;;;;;;;;9.60;92.50;;;;;;5045088;28;20036;-67
2021/05/19 00:38:04;;;;;;;3.28;1.10;;;9.50;92.50;;;;;;5046442;28;19920;-68
2021/05/19 00:40:30;;;;;;;;;;;9.50;92.50;;;;;;5046127;28;20052;-68
2021/05/19 00:42:58;;;;;;;2.88;1.08;;;9.40;92.60;;;;;;5046173;28;20381;-68
2021/05/19 00:45:24;;;;;;;6.53;0.98;;;9.40;92.80;;;;;;5046432;28;20028;-65
2021/05/19 00:47:50;;;;;;;18.02;1.48;;;9.40;92.80;;;;;;5044528;28;20053;-65
2021/05/19 00:50:26;;;;;;;;;;;9.30;92.80;;;;;;5046614;28;20036;-65
2021/05/19 00:52:52;;;;;;;2.80;1.00;;;9.30;92.70;;;;;;5046094;28;20364;-68
2021/05/19 00:55:17;;;;;;;;;;;9.30;92.50;;;;;;5046841;28;20067;-68
2021/05/19 00:57:43;;;;;;;3.08;0.88;;;9.30;92.40;;;;;;5044710;28;20373;-66
2021/05/19 01:00:13;;;;;;;2.75;0.93;;;9.30;92.50;;;;;;5044404;28;20405;-65
2021/05/19 01:02:39;;;;;;;2.08;1.05;;;9.20;92.70;;;;;;5046108;28;20056;-65
2021/05/19 01:05:06;;;;;;;;;;;9.20;92.90;;;;;;5046554;28;20025;-65
2021/05/19 01:07:35;;;;;;;3.22;0.77;;;9.10;93.00;;;;;;5045969;28;19908;-65
2021/05/19 01:10:01;;;;;;;1.25;0.88;;;9.00;93.10;;;;;;5045873;28;20032;-65
2021/05/19 01:12:26;;;;;;;;;;;9.00;93.30;;;;;;5045275;28;20032;-65
2021/05/19 01:14:52;;;;;;;1.80;1.00;;;8.90;93.50;;;;;;5045610;28;19908;-66
2021/05/19 01:17:19;;;;;;;2.22;1.15;;;8.90;93.40;;;;;;5046148;28;20477;-65
2021/05/19 01:19:48;;;;;;;2.25;1.00;;;8.70;93.30;;;;;;5045500;28;20070;-64
2021/05/19 01:22:21;;;;;;;3.78;1.23;;;8.70;93.40;;;;;;5046091;28;20073;-65
2021/05/19 01:24:49;;;;;;;1.60;0.80;;;8.60;93.60;;;;;;5045909;28;20067;-66
2021/05/19 01:27:14;;;;;;;3.35;1.25;;;8.50;93.60;;;;;;5045655;28;20803;-65
2021/05/19 01:29:40;;;;;;;;;;;8.50;93.60;;;;;;5046316;28;20029;-68
2021/05/19 01:32:06;;;;;;;2.15;0.90;;;8.50;93.90;;;;;;5045630;28;19916;-66
2021/05/19 01:34:33;;;;;;;2.67;1.00;;;8.50;93.90;;;;;;5045569;28;20592;-65
2021/05/19 01:36:58;;;;;;;2.80;1.00;;;8.60;94.00;;;;;;5045869;28;20029;-65
2021/05/19 01:39:24;;;;;;;;;;;8.70;93.90;;;;;;5046267;28;20853;-66
2021/05/19 01:41:50;;;;;;;1.83;1.05;;;8.80;93.80;;;;;;5045346;28;20386;-65
2021/05/19 01:44:16;;;;;;;;;;;8.80;93.70;;;;;;5045821;28;20037;-65
2021/05/19 01:46:43;;;;;;;4.68;1.30;;;8.90;93.80;;;;;;5045675;28;19920;-66
2021/05/19 01:49:11;;;;;;;2.40;1.00;;;8.90;94.00;;;;;;5045487;28;20027;-68
2021/05/19 01:51:38;;;;;;;3.78;0.98;;;9.00;93.50;;;;;;5045177;28;20104;-65
2021/05/19 01:54:07;;;;;;;1.90;1.00;;;9.00;93.40;;;;;;5048205;28;20128;-65
2021/05/19 01:56:37;;;;;;;11.20;1.17;;;9.10;93.30;;;;;;5047663;28;20021;-65
2021/05/19 01:59:04;;;;;;;1.20;0.70;;;9.20;93.10;;;;;;5049053;28;20025;-65
2021/05/19 02:01:29;;;;;;;5.20;0.93;;;9.20;93.00;;;;;;5049546;28;20445;-65
2021/05/19 02:04:05;;;;;;;;;;;9.30;92.80;;;;;;5048223;28;20123;-65
2021/05/19 02:06:41;;;;;;;4.85;1.15;;;9.30;92.60;;;;;;5048882;28;19912;-65
2021/05/19 02:09:07;;;;;;;8.02;1.23;;;9.20;92.50;;;;;;5048908;28;20056;-65
2021/05/19 02:11:32;;;;;;;;;;;9.20;92.50;;;;;;5049853;28;20029;-64
2021/05/19 02:14:00;;;;;;;1.27;0.68;;;9.20;92.30;;;;;;5049008;28;19913;-65
2021/05/19 02:16:25;;;;;;;3.50;0.52;;;9.20;92.40;;;;;;5048955;28;20037;-65
2021/05/19 02:18:51;;;;;;;;;;;9.20;92.10;;;;;;5048926;28;20426;-65
2021/05/19 02:21:16;;;;;;;1.17;0.80;;;9.20;92.10;;;;;;5048847;28;19915;-66
2021/05/19 02:23:42;;;;;;;;;;;9.10;92.00;;;;;;5048195;28;20064;-65
2021/05/19 02:26:07;;;;;;;1.85;0.60;;;9.10;92.00;;;;;;5048995;28;20031;-66
2021/05/19 02:28:33;;;;;;;;;;;9.00;92.00;;;;;;5047918;28;20052;-65
2021/05/19 02:30:58;;;;;;;1.48;0.60;;;9.00;92.20;;;;;;5047231;28;20432;-66
2021/05/19 02:33:24;;;;;;;;;;;8.90;92.30;;;;;;5049047;28;20040;-65
2021/05/19 02:35:50;;;;;;;2.58;0.70;;;8.90;92.40;;;;;;5048401;28;20056;-67
2021/05/19 02:38:15;;;;;;;;;;;8.70;92.50;;;;;;5048947;28;20021;-65
2021/05/19 02:40:41;;;;;;;3.58;0.80;;;8.70;92.60;;;;;;5048515;28;20429;-66
2021/05/19 02:43:06;;;;;;;;;;;8.60;92.60;;;;;;5048937;28;20043;-66
2021/05/19 02:45:32;;;;;;;3.47;0.85;;;8.60;92.70;;;;;;5048383;28;19943;-66
2021/05/19 02:47:57;;;;;;;;;;;8.50;92.70;;;;;;5048606;28;20057;-68
2021/05/19 02:50:23;;;;;;;2.35;0.80;;;8.40;93.00;;;;;;5047337;28;20002;-65
2021/05/19 02:52:49;;;;;;;;;;;8.30;93.10;;;;;;5048856;28;20089;-67
2021/05/19 02:55:14;;;;;;;1.38;0.80;;;8.30;93.40;;;;;;5048458;28;19909;-65
2021/05/19 02:57:40;;;;;;;;;;;8.30;93.40;;;;;;5048545;28;20790;-69
2021/05/19 03:00:07;;;;;;;2.50;0.75;;;8.30;93.50;;;;;;5048374;28;19908;-68
2021/05/19 03:02:33;;;;;;;1.65;0.77;;;8.30;93.30;;;;;;5047442;28;20061;-68
2021/05/19 03:04:59;;;;;;;3.90;1.40;;;8.30;93.30;;;;;;5047579;28;20051;-68
2021/05/19 03:07:24;;;;;;;;;;;8.30;93.30;;;;;;5048154;28;20025;-68
2021/05/19 03:09:50;;;;;;;3.17;1.52;;;8.30;93.40;;;;;;5048119;28;20335;-69
2021/05/19 03:12:15;;;;;;;;;;;8.40;93.30;;;;;;5047097;28;20496;-65
2021/05/19 03:14:41;;;;;;;7.72;1.92;;;8.40;93.40;;;;;;5047616;28;20434;-65
2021/05/19 03:17:07;;;;;;;;;;;8.50;93.30;;;;;;5048497;28;20086;-64
2021/05/19 03:19:32;;;;;;;4.43;1.95;;;8.50;93.20;;;;;;5047298;28;19974;-66
2021/05/19 03:21:58;;;;;;;;;;;8.50;93.10;;;;;;5046568;28;20040;-67
2021/05/19 03:24:24;;;;;;;3.30;1.48;;;8.60;93.00;;;;;;5046329;28;19995;-65
2021/05/19 03:26:50;;;;;;;;;;;8.70;92.90;;;;;;5047803;28;20340;-65
2021/05/19 03:29:15;;;;;;;4.50;1.10;;;8.70;92.90;;;;;;5047450;28;19954;-66
2021/05/19 03:31:41;;;;;;;;;;;8.80;92.70;;;;;;5048137;28;20028;-65
2021/05/19 03:34:06;;;;;;;2.40;0.57;;;8.90;92.70;;;;;;5047308;28;20023;-66
2021/05/19 03:36:32;;;;;;;;;;;9.00;92.50;;;;;;5047933;28;20409;-66
2021/05/19 03:38:58;;;;;;;4.50;0.60;;;9.00;92.10;;;;;;5047543;28;19920;-67
2021/05/19 03:41:23;;;;;;;;;;;9.10;91.80;;;;;;5047817;28;20044;-66
2021/05/19 03:43:49;;;;;;;3.20;0.70;;;9.20;91.40;;;;;;5047518;28;19916;-66
2021/05/19 03:46:15;;;;;;;;;;;9.20;91.40;;;;;;5047382;28;20496;-67
2021/05/19 03:48:42;;;;;;;3.28;0.55;;;9.30;91.60;;;;;;5046974;28;19909;-67
2021/05/19 03:51:09;;;;;;;9.95;0.70;;;9.30;91.50;;;;;;5046861;28;20060;-66
2021/05/19 03:53:35;;;;;;;2.60;0.60;;;9.40;91.40;;;;;;5046023;28;20036;-67
2021/05/19 03:56:01;;;;;;;1.08;0.52;;;9.50;91.50;;;;;;5046086;28;20043;-68
2021/05/19 03:58:26;;;;;;;;;;;9.70;91.30;;;;;;5047223;28;20025;-68
2021/05/19 04:00:52;;;;;;;3.33;1.10;;;10.00;90.60;;;;;;5047058;28;20446;-68
2021/05/19 04:03:17;;;;;;;;;;;10.20;90.20;;;;;;5047027;28;20032;-69
2021/05/19 04:05:49;;;;;;;6.00;2.05;;;10.50;89.60;;;;;;5046738;28;19915;-69
2021/05/19 04:08:15;;;;;;;4.15;2.38;;;10.70;88.80;;;;;;5045581;28;20029;-68
2021/05/19 04:10:40;;;;;;;;;;;10.90;88.20;;;;;;5046906;28;20105;-69
2021/05/19 04:13:06;;;;;;;3.65;1.38;;;11.00;87.20;;;;;;5046876;28;19908;-68
2021/05/19 04:15:32;;;;;;;;;;;11.20;86.70;;;;;;5046096;28;20405;-69
2021/05/19 04:17:58;;;;;;;2.88;1.10;;;11.50;86.10;;;;;;5046957;28;19912;-68
2021/05/19 04:20:24;;;;;;;;;;;11.80;84.90;;;;;;5046911;28;20098;-69
2021/05/19 04:22:49;;;;;;;4.47;0.80;;;12.10;83.70;;;;;;5046544;28;19917;-66
2021/05/19 04:25:15;;;;;;;;;;;12.40;82.80;;;;;;5046862;28;20028;-66
2021/05/19 04:27:41;;;;;;;2.72;0.80;;;12.60;81.80;;;;;;5046719;28;20364;-66
2021/05/19 04:30:09;;;;;;;3.40;0.77;;;12.80;81.10;;;;;;5045187;28;20116;-66
2021/05/19 04:32:35;;;;;;;6.18;0.90;;;13.00;80.80;;;;;;5044850;28;20036;-66
2021/05/19 04:35:02;;;;;;;2.95;0.70;;;13.20;79.70;;;;;;5046222;28;20036;-66
2021/05/19 04:37:28;;;;;;;3.97;0.50;;;13.40;78.70;;;;;;5045997;28;20551;-66
2021/05/19 04:39:53;;;;;;;;;;;13.50;78.40;;;;;;5046787;28;20104;-66
2021/05/19 04:42:19;;;;;;;2.13;0.70;;;13.70;77.70;;;;;;5046511;28;20011;-66
2021/05/19 04:44:44;;;;;;;;;;;14.00;78.10;;;;;;5045557;28;20025;-66
2021/05/19 04:47:10;;;;;;;3.58;0.60;;;14.20;75.60;;;;;;5045441;28;20329;-66
2021/05/19 04:49:36;;;;;;;2.92;0.60;;;14.50;76.40;;;;;;5044915;28;20032;-65
2021/05/19 04:52:01;;;;;;;;;;;14.70;75.40;;;;;;5046787;28;20104;-67
2021/05/19 04:54:27;;;;;;;1.25;0.40;;;15.00;72.80;;;;;;5045944;28;19947;-66
2021/05/19 04:56:53;;;;;;;2.15;0.50;;;15.20;72.90;;;;;;5046102;28;20063;-66
2021/05/19 04:59:18;;;;;;;3.17;1.40;;;15.50;71.70;;;;;;5046062;28;20083;-65
2021/05/19 05:01:44;;;;;;;1.50;0.50;;;15.80;71.20;;;;;;5045892;28;20110;-66
2021/05/19 05:04:10;;;;;;;2.28;0.60;;;15.90;70.40;;;;;;5045798;28;20044;-66
2021/05/19 05:06:35;;;;;;;3.40;0.70;;;16.10;70.20;;;;;;5045768;28;20375;-66
2021/05/19 05:09:01;;;;;;;0.95;0.50;;;16.30;69.80;;;;;;5045707;28;20025;-65
2021/05/19 05:11:27;;;;;;;0.90;0.50;;;16.50;68.30;;;;;;5046276;28;20025;-66
2021/05/19 05:13:52;;;;;;;1.60;0.60;;;16.60;67.60;;;;;;5044678;28;20509;-66
2021/05/19 05:16:18;;;;;;;1.00;0.40;;;16.70;67.10;;;;;;5046025;28;20032;-66
2021/05/19 05:18:44;;;;;;;0.93;0.63;;;16.90;65.70;;;;;;5044043;28;20028;-67
2021/05/19 05:21:11;;;;;;;9.23;1.00;;;17.00;65.30;;;;;;5045585;28;20055;-67
2021/05/19 05:23:37;;;;;;;2.88;0.70;;;17.20;63.80;;;;;;5046053;28;20386;-67
2021/05/19 05:26:03;;;;;;;3.97;0.82;;;17.10;63.40;;;;;;5046571;28;20029;-67
2021/05/19 05:28:30;;;;;;;4.90;1.13;;;17.00;64.70;;;;;;5049944;28;20511;-66
2021/05/19 05:30:56;;;;;;;3.42;0.98;;;17.00;64.60;;;;;;5049552;28;20067;-66
2021/05/19 05:33:22;;;;;;;3.33;0.98;;;16.80;64.60;;;;;;5049806;28;20025;-65
2021/05/19 05:35:48;;;;;;;4.97;1.05;;;16.70;64.90;;;;;;5049482;28;20147;-66
2021/05/19 05:38:14;;;;;;;5.13;0.60;;;16.40;65.30;;;;;;5049803;28;20428;-67
2021/05/19 05:40:39;;;;;;;2.83;0.80;;;16.40;65.80;;;;;;5049156;28;20029;-66
2021/05/19 05:43:05;;;;;;;1.75;0.40;;;16.50;66.90;;;;;;5049778;28;20493;-67
2021/05/19 05:45:31;;;;;;;2.80;0.50;;;16.70;65.40;;;;;;5049895;28;20025;-66
2021/05/19 05:47:57;;;;;;;1.33;0.50;;;16.80;65.30;;;;;;5047404;28;20048;-67
2021/05/19 05:50:23;;;;;;;4.35;0.52;;;17.00;64.60;;;;;;5048111;28;20067;-66
2021/05/19 05:52:49;;;;;;;4.63;0.60;;;17.40;64.40;;;;;;5048925;28;20025;-67
2021/05/19 05:55:16;;;;;;;4.28;0.40;;;17.40;62.50;;;;;;5049496;28;20064;-66
2021/05/19 05:57:41;;;;;;;2.83;0.50;;;17.70;61.70;;;;;;5047829;28;20033;-66
2021/05/19 06:00:12;;;;;;;1.75;0.60;;;18.00;60.00;;;;;;5048107;28;20052;-67
2021/05/19 06:02:37;;;;;;;1.48;0.40;;;18.60;57.70;;;;;;5048872;28;20649;-67
2021/05/19 06:05:03;;;;;;;5.30;0.40;;;18.80;57.20;;;;;;5049017;28;20025;-67
2021/05/19 06:07:29;;;;;;;0.43;0.32;;;19.40;56.90;;;;;;5049450;28;20025;-66
2021/05/19 06:09:54;;;;;;;2.42;0.50;;;20.30;54.10;;;;;;5049147;28;20039;-67
2021/05/19 06:12:20;;;;;;;4.35;0.60;;;20.80;52.20;;;;;;5049259;28;20033;-67
2021/05/19 06:14:46;;;;;;;1.50;0.60;;;21.00;49.10;;;;;;5048823;28;20510;-67
2021/05/19 06:17:14;;;;;;;1.45;0.52;;;21.70;49.40;;;;;;5047480;28;20028;-67
2021/05/19 06:19:40;;;;;;;3.88;0.55;;;22.60;46.10;;;;;;5049014;28;20055;-67
2021/05/19 06:22:07;;;;;;;6.25;0.80;;;23.00;43.20;;;;;;5048915;28;20086;-67
2021/05/19 06:24:32;;;;;;;1.77;0.50;;;23.30;43.80;;;;;;5048892;28;20025;-67
2021/05/19 06:26:58;;;;;;;1.65;0.60;;;23.50;43.80;;;;;;5048875;28;20036;-67
2021/05/19 06:29:24;;;;;;;0.70;0.40;;;24.00;42.10;;;;;;5048386;28;20029;-68
2021/05/19 06:31:49;;;;;;;1.20;0.68;;;24.70;41.10;;;;;;5048629;28;20043;-67
2021/05/19 06:34:15;;;;;;;4.38;0.95;;;25.20;40.60;;;;;;5048649;28;20136;-67
2021/05/19 06:36:47;;;;;;;4.80;1.30;;;25.50;40.20;;;;;;5048501;28;20485;-68
2021/05/19 06:39:13;;;;;;;3.95;1.27;;;25.90;40.00;;;;;;5047565;28;20079;-67
2021/05/19 06:41:42;;;;;;;3.17;1.20;;;26.00;39.20;;;;;;5048864;28;20059;-68
2021/05/19 06:44:09;;;;;;;7.68;1.60;;;26.30;39.40;;;;;;5047043;28;20128;-67
2021/05/19 06:46:35;;;;;;;7.57;1.75;;;26.60;39.10;;;;;;5048142;28;20076;-67
2021/05/19 06:49:03;;;;;;;8.95;1.58;;;26.90;38.20;;;;;;5048458;28;20102;-68
2021/05/19 06:51:30;;;;;;;8.48;1.00;;;27.10;38.10;;;;;;5048272;28;20104;-67
2021/05/19 06:53:56;;;;;;;4.10;0.70;;;27.10;36.90;;;;;;5048065;28;20048;-66
2021/05/19 06:56:21;;;;;;;3.22;1.08;;;27.30;36.40;;;;;;5048486;28;20029;-67
2021/05/19 06:58:47;;;;;;;1.90;0.60;;;27.50;35.80;;;;;;5048116;28;20035;-67
2021/05/19 07:01:13;;;;;;;3.55;0.82;;;27.90;35.70;;;;;;5047843;28;20132;-67
2021/05/19 07:03:38;;;;;;;3.88;0.70;;;27.80;34.80;;;;;;5047622;28;20244;-67
2021/05/19 07:06:04;;;;;;;4.03;0.70;;;27.60;34.80;;;;;;5048175;28;20062;-67
2021/05/19 07:08:30;;;;;;;2.65;0.77;;;27.50;34.90;;;;;;5047575;28;20333;-67
2021/05/19 07:10:56;;;;;;;5.13;1.20;;;27.60;34.70;;;;;;5048240;28;20033;-67
2021/05/19 07:13:21;;;;;;;5.03;1.00;;;28.00;33.40;;;;;;5048137;28;20032;-67
2021/05/19 07:15:52;;;;;;;6.03;0.90;;;27.70;34.70;;;;;;5047563;28;20021;-66
2021/05/19 07:18:17;;;;;;;4.25;0.93;;;27.40;34.80;;;;;;5047643;28;20025;-68
2021/05/19 07:20:44;;;;;;;4.22;0.90;;;27.30;35.20;;;;;;5047366;28;20033;-68
2021/05/19 07:23:09;;;;;;;3.22;0.77;;;27.40;35.40;;;;;;5047564;28;20036;-67
2021/05/19 07:25:35;;;;;;;4.47;0.80;;;27.60;34.30;;;;;;5047937;28;20082;-67
2021/05/19 07:28:05;;;;;;;7.18;0.85;;;27.60;34.50;;;;;;5047753;28;20648;-67
2021/05/19 07:30:31;;;;;;;2.25;0.93;;;27.60;35.10;;;;;;5047185;28;20086;-67
2021/05/19 07:32:57;;;;;;;3.83;0.60;;;27.50;35.70;;;;;;5048012;28;20608;-68
2021/05/19 07:35:22;;;;;;;5.10;0.65;;;27.70;35.90;;;;;;5047570;28;20029;-68
2021/05/19 07:37:49;;;;;;;1.00;0.60;;;27.70;35.80;;;;;;5047521;28;20021;-67
2021/05/19 07:40:15;;;;;;;0.90;0.60;;;27.90;35.20;;;;;;5046155;28;20025;-67
2021/05/19 07:42:41;;;;;;;1.80;0.55;;;28.10;33.20;;;;;;5047016;28;20452;-67
2021/05/19 07:45:08;;;;;;;3.97;0.70;;;28.30;33.20;;;;;;5047473;28;20571;-68
2021/05/19 07:47:34;;;;;;;4.57;0.75;;;28.30;34.50;;;;;;5046995;28;20053;-67
2021/05/19 07:49:59;;;;;;;1.83;0.65;;;28.40;32.50;;;;;;5047298;28;20067;-67
2021/05/19 07:52:25;;;;;;;7.75;0.77;;;28.40;32.30;;;;;;5047697;28;20508;-65
2021/05/19 07:54:51;;;;;;;5.78;0.70;;;28.30;33.80;;;;;;5047070;28;20045;-68
2021/05/19 07:57:22;;;;;;;7.07;1.08;;;28.00;33.80;;;;;;5046897;28;20046;-67
2021/05/19 07:59:57;;;;;;;3.63;0.85;;;28.00;34.70;;;;;;5046860;28;20112;-68
2021/05/19 08:02:22;;;;;;;7.72;1.20;;;27.90;34.40;;;;;;5045273;28;20029;-67
2021/05/19 08:04:48;;;;;;;10.85;1.38;;;27.70;35.20;;;;;;5046630;28;20536;-66
2021/05/19 08:07:13;;;;;;;2.28;0.50;;;27.20;36.00;;;;;;5047025;28;20033;-67
2021/05/19 08:09:39;;;;;;;1.35;0.50;;;26.70;37.20;;;;;;5046621;28;20545;-67
2021/05/19 08:12:05;;;;;;;2.13;0.50;;;26.40;37.00;;;;;;5046937;28;20104;-67
2021/05/19 08:14:31;;;;;;;4.10;0.77;;;25.90;38.00;;;;;;5046114;28;20402;-67
2021/05/19 08:16:58;;;;;;;4.85;1.17;;;25.90;37.60;;;;;;5045465;28;20021;-67
2021/05/19 08:19:24;;;;;;;3.50;0.80;;;25.50;37.30;;;;;;5044950;28;20409;-67
2021/05/19 08:21:50;;;;;;;3.85;1.17;;;25.30;37.80;;;;;;5046564;28;20490;-69
2021/05/19 08:24:16;;;;;;;6.28;1.20;;;25.00;39.00;;;;;;5046680;28;20098;-69
2021/05/19 08:26:42;;;;;;;5.70;0.88;;;25.10;38.70;;;;;;5046605;28;20025;-69
2021/05/19 08:29:08;;;;;;;11.15;0.70;;;24.90;38.50;;;;;;5046482;28;20094;-68
2021/05/19 08:31:33;;;;;;;7.57;0.98;;;24.80;38.70;;;;;;5046098;28;20017;-67
2021/05/19 08:33:59;;;;;;;3.60;1.00;;;24.70;38.40;;;;;;5046660;28;20036;-66
2021/05/19 08:36:25;;;;;;;2.60;0.63;;;24.40;40.70;;;;;;5046637;28;20072;-67
2021/05/19 08:38:52;;;;;;;2.95;0.82;;;24.00;40.10;;;;;;5046368;28;20087;-67
2021/05/19 08:41:19;;;;;;;10.40;0.75;;;23.80;42.90;;;;;;5044835;28;20059;-66
2021/05/19 08:43:44;;;;;;;5.22;0.90;;;23.70;42.80;;;;;;5046131;28;20040;-66
2021/05/19 08:46:10;;;;;;;3.83;1.00;;;23.60;43.60;;;;;;5045833;28;20044;-66
2021/05/19 08:48:37;;;;;;;3.67;1.05;;;23.60;42.00;;;;;;5044919;28;20045;-66
2021/05/19 08:51:04;;;;;;;5.50;0.70;;;23.60;42.50;;;;;;5044673;28;20591;-65
2021/05/19 08:53:32;;;;;;;4.82;0.70;;;23.50;43.30;;;;;;5045201;28;20055;-66
2021/05/19 08:55:57;;;;;;;5.55;0.80;;;23.40;43.60;;;;;;5045882;28;20052;-66
2021/05/19 08:58:24;;;;;;;2.13;0.80;;;23.60;42.60;;;;;;5046302;28;20486;-66
2021/05/19 09:00:49;;;;;;;2.00;0.80;;;23.70;42.30;;;;;;5044707;28;20029;-67
2021/05/19 09:03:17;;;;;;;1.98;0.70;;;24.20;40.50;;;;;;5046160;28;20037;-67
2021/05/19 09:05:46;;;;;;;2.78;0.75;;;24.90;39.60;;;;;;5046181;28;20025;-67
2021/05/19 09:08:19;;;;;;;1.15;0.75;;;25.70;38.60;;;;;;5046007;28;20029;-67
2021/05/19 09:10:58;;;;;;;2.45;0.90;;;26.50;35.80;;;;;;5045845;28;20025;-67
2021/05/19 09:13:41;;;;;;;8.38;1.00;;;26.80;33.70;;;;;;5045682;28;20204;-68
2021/05/19 09:16:09;;;;;;;2.53;1.10;;;27.00;36.20;;;;;;5045845;28;20025;-67
2021/05/19 09:18:55;;;;;;;2.70;0.70;;;27.90;33.70;;;;;;5045768;28;20033;-67
2021/05/19 09:21:42;;;;;;;1.13;0.60;;;28.10;33.50;;;;;;5046090;28;20512;-67
2021/05/19 09:24:12;;;;;;;1.35;0.60;;;28.40;32.90;;;;;;5046052;28;20333;-67
2021/05/19 09:27:12;;;;;;;2.22;0.63;;;28.70;31.30;;;;;;5045708;28;20097;-67
2021/05/19 09:29:39;;;;;;;3.53;0.63;;;29.00;32.00;;;;;;5045777;28;20029;-68
2021/05/19 09:32:10;;;;;;;2.30;0.60;;;28.60;29.60;;;;;;5045825;28;20057;-66
2021/05/19 09:34:38;;;;;;;3.60;0.80;;;27.80;30.00;;;;;;5044519;28;20021;-67
2021/05/19 09:37:15;;;;;;;1.35;0.88;;;26.70;32.90;;;;;;5045695;28;20040;-67
2021/05/19 09:40:11;;;;;;;4.63;0.60;;;26.70;34.50;;;;;;5044738;28;20493;-67
2021/05/19 09:42:36;;;;;;;2.10;0.60;;;27.60;32.70;;;;;;5044507;28;20086;-67
2021/05/19 09:45:26;;;;;;;2.22;0.88;;;27.80;31.50;;;;;;5045598;28;20021;-67
2021/05/19 09:47:56;;;;;;;4.50;0.70;;;28.20;32.80;;;;;;5045642;28;20053;-67
2021/05/19 09:50:37;;;;;;;4.18;0.70;;;28.00;32.30;;;;;;5046007;28;20041;-67
2021/05/19 09:53:09;;;;;;;1.67;0.70;;;27.60;30.90;;;;;;5045495;28;20033;-67
2021/05/19 09:55:38;;;;;;;2.08;0.80;;;27.30;31.20;;;;;;5045973;28;20104;-67
2021/05/19 09:58:03;;;;;;;1.05;0.50;;;27.60;32.90;;;;;;5045466;28;20025;-67
2021/05/19 10:00:30;;;;;;;2.13;0.70;;;27.60;31.20;;;;;;5045055;28;20473;-66
2021/05/19 10:02:56;;;;;;;3.78;0.70;;;27.10;30.90;;;;;;5045233;28;20048;-67
2021/05/19 10:05:28;;;;;;;2.95;1.00;;;26.30;32.70;;;;;;5045360;28;20116;-67
2021/05/19 10:07:54;;;;;;;5.78;1.15;;;25.80;34.50;;;;;;5045467;28;20025;-66
2021/05/19 10:10:21;;;;;;;1.35;0.60;;;25.90;35.10;;;;;;5045810;28;20130;-66
2021/05/19 10:12:47;;;;;;;2.88;0.60;;;25.70;33.00;;;;;;5046600;28;20449;-66
2021/05/19 10:15:24;;;;;;;6.30;0.70;;;25.10;34.20;;;;;;5048854;28;20504;-66
2021/05/19 10:18:01;;;;;;;1.40;0.80;;;24.90;36.00;;;;;;5048834;28;20119;-67
2021/05/19 10:20:28;;;;;;;2.65;0.50;;;24.80;37.10;;;;;;5047414;28;20040;-67
2021/05/19 10:22:54;;;;;;;1.52;0.80;;;24.80;36.00;;;;;;5049151;28;20070;-67
2021/05/19 10:25:32;;;;;;;2.08;0.40;;;24.40;36.40;;;;;;5048724;28;20129;-66
2021/05/19 10:28:00;;;;;;;1.27;0.80;;;24.20;37.90;;;;;;5048720;28;20806;-67
2021/05/19 10:30:55;;;;;;;3.38;1.23;;;24.10;38.20;;;;;;5048689;28;20098;-67
2021/05/19 10:33:27;;;;;;;2.83;0.77;;;24.10;37.10;;;;;;5039706;28;20051;-66
2021/05/19 10:36:00;;;;;;;5.35;0.73;;;24.00;37.70;;;;;;5048414;28;20021;-67
2021/05/19 10:38:31;;;;;;;4.22;0.65;;;24.00;38.20;;;;;;5048939;28;20021;-66
2021/05/19 10:41:05;;;;;;;3.42;0.70;;;23.90;37.30;;;;;;5048629;28;20036;-66
2021/05/19 10:43:47;;;;;;;1.48;0.63;;;23.90;38.40;;;;;;5048641;28;20590;-67
2021/05/19 10:46:15;;;;;;;4.22;0.70;;;23.90;39.70;;;;;;5048220;28;20059;-67
2021/05/19 10:48:41;;;;;;;4.30;0.75;;;23.90;38.60;;;;;;5048461;28;20297;-67
2021/05/19 10:51:40;;;;;;;5.50;0.60;;;23.90;38.20;;;;;;5048576;28;20025;-67
2021/05/19 11:00:17;;;;;;;3.70;0.60;;;23.70;40.80;;;;;;5048271;28;20083;-67
2021/05/19 11:02:59;;;;;;;1.10;0.65;;;23.40;39.10;;;;;;5047863;28;20056;-66
2021/05/19 11:05:32;;;;;;;1.52;0.75;;;22.90;42.60;;;;;;5048275;28;20025;-66
2021/05/19 11:08:07;;;;;;;8.30;0.75;;;22.40;39.30;;;;;;5048083;28;20025;-67
2021/05/19 11:10:33;;;;;;;1.52;0.45;;;21.90;42.20;;;;;;5047954;28;20029;-66
2021/05/19 11:12:59;;;;;;;2.00;0.50;;;21.60;40.70;;;;;;5047708;28;20493;-66
2021/05/19 11:15:52;;;;;;;3.03;0.73;;;21.00;42.40;;;;;;5047989;28;20036;-66
2021/05/19 11:21:05;;;;;;;2.25;0.60;;;20.20;46.70;;;;;;5048172;28;20039;-66
2021/05/19 11:23:32;;;;;;;5.07;0.32;;;19.80;47.60;;;;;;5047180;28;20025;-66
2021/05/19 11:26:11;;;;;;;1.02;0.40;;;19.60;45.50;;;;;;5047719;28;20533;-67
2021/05/19 11:28:39;;;;;;;1.42;0.30;;;19.40;45.10;;;;;;5047605;28;20469;-66
2021/05/19 11:31:16;;;;;;;0.80;0.20;;;19.10;44.90;;;;;;5047393;28;20086;-65
2021/05/19 11:33:51;;;;;;;5.18;0.75;;;18.90;44.30;;;;;;5047742;28;20056;-65
2021/05/19 11:36:40;;;;;;;1.08;0.55;;;18.50;44.90;;;;;;5047529;28;20021;-67
2021/05/19 11:39:24;;;;;;;6.85;0.40;;;18.20;45.80;;;;;;5047186;28;20021;-66
2021/05/19 11:42:07;;;;;;;1.58;0.60;;;17.80;48.30;;;;;;5047143;28;20033;-66
2021/05/19 11:44:38;;;;;;;3.88;0.38;;;17.30;47.40;;;;;;5046976;28;20041;-66
2021/05/19 11:47:05;;;;;;;1.55;0.35;;;17.00;49.50;;;;;;5047456;28;20647;-65
2021/05/19 11:49:31;;;;;;;4.72;0.90;;;17.00;47.30;;;;;;5047046;28;20063;-66
2021/05/19 11:51:57;;;;;;;2.65;0.50;;;16.80;50.70;;;;;;5045949;28;20396;-66
2021/05/19 11:54:23;;;;;;;1.40;0.40;;;16.70;52.70;;;;;;5047070;28;20714;-65
2021/05/19 11:56:54;;;;;;;4.10;0.30;;;16.30;54.10;;;;;;5046424;28;20116;-66
2021/05/19 11:59:26;;;;;;;2.42;0.60;;;16.00;57.10;;;;;;5046977;28;20025;-66
2021/05/19 12:02:06;;;;;;;5.38;1.05;;;15.80;60.20;;;;;;5047200;28;20032;-66
2021/05/19 12:04:35;;;;;;;1.98;0.60;;;15.60;62.60;;;;;;5046770;28;20033;-68
2021/05/19 12:07:03;;;;;;;9.77;0.82;;;15.40;64.30;;;;;;5047197;28;20100;-68
2021/05/19 12:09:38;;;;;;;2.65;0.50;;;15.40;64.20;;;;;;5045230;28;20029;-68
2021/05/19 12:12:17;;;;;;;2.50;0.50;;;15.20;66.80;;;;;;5046843;28;20021;-67
2021/05/19 12:14:56;;;;;;;12.18;1.27;;;15.00;67.10;;;;;;5046692;28;20037;-67
2021/05/19 12:17:25;;;;;;;1.92;0.35;;;14.70;67.90;;;;;;5046924;28;20044;-68
2021/05/19 12:19:51;;;;;;;1.98;0.45;;;14.60;68.50;;;;;;5046906;28;20159;-68
2021/05/19 12:22:19;;;;;;;;;;;14.60;66.70;;;;;;5047023;28;20124;-68
2021/05/19 12:24:45;;;;;;;1.42;0.45;;;14.50;67.90;;;;;;5045368;28;20050;-67
2021/05/19 12:27:16;;;;;;;1.02;0.50;;;14.60;68.30;;;;;;5046320;28;20029;-67
2021/05/19 12:29:48;;;;;;;20.20;2.92;;;14.70;66.20;;;;;;5046669;28;20017;-68
2021/05/19 12:32:23;;;;;;;4.28;2.05;;;14.80;66.70;;;;;;5046436;28;20078;-68
2021/05/19 12:35:08;;;;;;;3.63;2.03;;;14.90;68.50;;;;;;5046606;28;20490;-68
2021/05/19 12:37:50;;;;;;;4.22;2.10;;;14.60;72.30;;;;;;5045598;28;20036;-68
2021/05/19 12:40:22;;;;;;;7.80;0.95;;;14.60;72.50;;;;;;5046115;28;20036;-68
2021/05/19 12:42:56;;;;;;;0.95;0.40;;;14.60;71.20;;;;;;5045582;28;20040;-66
2021/05/19 12:45:44;;;;;;;2.10;0.45;;;14.50;71.80;;;;;;5046122;28;20031;-67
2021/05/19 12:48:11;;;;;;;1.55;0.40;;;14.50;71.10;;;;;;5046297;28;20095;-67
2021/05/19 12:50:38;;;;;;;0.80;0.40;;;14.60;72.20;;;;;;5046001;28;20028;-67
2021/05/19 12:53:04;;;;;;;0.70;0.47;;;14.60;70.60;;;;;;5044713;28;20029;-67
2021/05/19 12:55:29;;;;;;;;;;;14.60;71.60;;;;;;5045697;28;20059;-68
2021/05/19 12:58:06;;;;;;;1.63;0.85;;;14.70;71.80;;;;;;5046181;28;19909;-67
2021/05/19 13:00:32;;;;;;;2.35;0.60;;;14.60;72.60;;;;;;5046072;28;20029;-68
2021/05/19 13:02:58;;;;;;;;;;;14.60;72.00;;;;;;5044833;28;20486;-67
2021/05/19 13:05:30;;;;;;;1.75;0.90;;;14.50;71.40;;;;;;5044983;28;19915;-67
2021/05/19 13:07:56;;;;;;;2.70;0.90;;;14.60;73.40;;;;;;5046036;28;20100;-67
2021/05/19 13:13:22;;;;;;;4.30;1.00;;;14.70;73.60;;;;;;5045415;28;20036;-67
2021/05/19 13:15:59;;;;;;;5.32;1.27;;;14.80;74.00;;;;;;5045741;28;20025;-68
2021/05/19 13:18:51;;;;;;;4.20;1.30;;;14.90;75.80;;;;;;5045899;28;20036;-67